sensor_id;sensor_type;location;lat;lon;timestamp;pressure;altitude;pressure_sealevel;temperature;humidity
50242;BME280;36126;43.222;27.874;2022-09-13T00:00:00;100690.97;;;18.56;100.00
50242;BME280;36126;43.222;27.874;2022-09-13T00:02:25;100685.91;;;18.52;100.00
50242;BME280;36126;43.222;27.874;2022-09-13T00:04:51;100689.34;;;18.44;100.00
50242;BME280;36126;43.222;27.874;2022-09-13T00:07:16;100689.03;;;18.46;100.00
50242;BME280;36126;43.222;27.874;2022-09-13T00:09:42;100694.03;;;18.59;100.00
50242;BME280;36126;43.222;27.874;2022-09-13T00:12:07;100692.56;;;18.67;100.00
50242;BME280;36126;43.222;27.874;2022-09-13T00:14:32;100700.56;;;18.49;100.00
50242;BME280;36126;43.222;27.874;2022-09-13T00:16:58;100696.00;;;18.04;100.00
50242;BME280;36126;43.222;27.874;2022-09-13T00:19:23;100696.31;;;17.92;100.00
50242;BME280;36126;43.222;27.874;2022-09-13T00:21:48;100691.81;;;17.75;100.00
50242;BME280;36126;43.222;27.874;2022-09-13T00:24:14;100698.53;;;17.95;100.00
50242;BME280;36126;43.222;27.874;2022-09-13T00:26:39;100695.16;;;17.82;100.00
50242;BME280;36126;43.222;27.874;2022-09-13T00:29:05;100687.53;;;18.09;100.00
50242;BME280;36126;43.222;27.874;2022-09-13T00:31:30;100685.81;;;18.13;100.00
50242;BME280;36126;43.222;27.874;2022-09-13T00:33:57;100693.06;;;18.29;100.00
50242;BME280;36126;43.222;27.874;2022-09-13T00:36:23;100688.00;;;18.31;100.00
50242;BME280;36126;43.222;27.874;2022-09-13T00:38:48;100687.81;;;18.12;100.00
50242;BME280;36126;43.222;27.874;2022-09-13T00:41:14;100701.59;;;18.09;100.00
50242;BME280;36126;43.222;27.874;2022-09-13T00:46:05;100701.28;;;18.10;100.00
50242;BME280;36126;43.222;27.874;2022-09-13T00:48:31;100697.59;;;18.25;100.00
50242;BME280;36126;43.222;27.874;2022-09-13T00:50:57;100701.50;;;18.29;100.00
50242;BME280;36126;43.222;27.874;2022-09-13T00:53:24;100709.63;;;18.36;100.00
50242;BME280;36126;43.222;27.874;2022-09-13T00:58:20;100714.16;;;18.32;100.00
50242;BME280;36126;43.222;27.874;2022-09-13T01:00:47;100720.13;;;18.15;100.00
50242;BME280;36126;43.222;27.874;2022-09-13T01:03:13;100728.31;;;17.91;100.00
50242;BME280;36126;43.222;27.874;2022-09-13T01:05:43;100727.22;;;17.97;100.00
50242;BME280;36126;43.222;27.874;2022-09-13T01:08:09;100731.44;;;17.68;100.00
50242;BME280;36126;43.222;27.874;2022-09-13T01:10:40;100730.59;;;17.78;100.00
50242;BME280;36126;43.222;27.874;2022-09-13T01:13:13;100729.50;;;17.69;100.00
50242;BME280;36126;43.222;27.874;2022-09-13T01:15:41;100725.03;;;17.42;100.00
50242;BME280;36126;43.222;27.874;2022-09-13T01:18:06;100732.28;;;17.79;100.00
50242;BME280;36126;43.222;27.874;2022-09-13T01:21:20;100732.31;;;17.38;100.00
50242;BME280;36126;43.222;27.874;2022-09-13T01:28:35;100732.88;;;17.09;100.00
50242;BME280;36126;43.222;27.874;2022-09-13T01:33:49;100738.50;;;17.14;100.00
50242;BME280;36126;43.222;27.874;2022-09-13T01:46:46;100736.50;;;16.89;100.00
50242;BME280;36126;43.222;27.874;2022-09-13T01:49:15;100741.50;;;16.82;100.00
50242;BME280;36126;43.222;27.874;2022-09-13T01:51:48;100732.31;;;16.92;100.00
50242;BME280;36126;43.222;27.874;2022-09-13T01:54:17;100731.69;;;16.79;100.00
50242;BME280;36126;43.222;27.874;2022-09-13T01:59:20;100732.41;;;16.39;100.00
50242;BME280;36126;43.222;27.874;2022-09-13T02:01:49;100724.22;;;16.27;100.00
50242;BME280;36126;43.222;27.874;2022-09-13T02:04:22;100728.19;;;16.31;100.00
50242;BME280;36126;43.222;27.874;2022-09-13T02:07:02;100727.00;;;16.22;100.00
50242;BME280;36126;43.222;27.874;2022-09-13T02:09:33;100736.44;;;16.05;100.00
50242;BME280;36126;43.222;27.874;2022-09-13T02:12:02;100732.53;;;16.06;100.00
50242;BME280;36126;43.222;27.874;2022-09-13T02:14:31;100725.22;;;16.00;100.00
50242;BME280;36126;43.222;27.874;2022-09-13T02:19:40;100729.41;;;15.97;100.00
50242;BME280;36126;43.222;27.874;2022-09-13T02:22:09;100727.41;;;15.93;100.00
50242;BME280;36126;43.222;27.874;2022-09-13T02:24:36;100723.78;;;15.97;100.00
50242;BME280;36126;43.222;27.874;2022-09-13T02:27:04;100718.19;;;15.97;100.00
50242;BME280;36126;43.222;27.874;2022-09-13T02:29:30;100714.19;;;15.83;100.00
50242;BME280;36126;43.222;27.874;2022-09-13T02:31:59;100712.69;;;15.75;100.00
50242;BME280;36126;43.222;27.874;2022-09-13T02:34:30;100713.28;;;15.77;100.00
50242;BME280;36126;43.222;27.874;2022-09-13T02:36:57;100715.50;;;15.70;100.00
50242;BME280;36126;43.222;27.874;2022-09-13T02:39:25;100702.84;;;15.62;100.00
50242;BME280;36126;43.222;27.874;2022-09-13T02:42:04;100713.19;;;15.62;100.00
50242;BME280;36126;43.222;27.874;2022-09-13T02:44:51;100706.13;;;15.54;100.00
50242;BME280;36126;43.222;27.874;2022-09-13T02:50:07;100709.25;;;15.58;100.00
50242;BME280;36126;43.222;27.874;2022-09-13T02:55:19;100717.00;;;15.45;100.00
50242;BME280;36126;43.222;27.874;2022-09-13T02:57:59;100723.38;;;15.36;100.00
50242;BME280;36126;43.222;27.874;2022-09-13T03:00:26;100724.84;;;15.48;100.00
50242;BME280;36126;43.222;27.874;2022-09-13T03:02:53;100728.84;;;15.58;100.00
50242;BME280;36126;43.222;27.874;2022-09-13T03:05:19;100728.31;;;15.61;100.00
50242;BME280;36126;43.222;27.874;2022-09-13T03:07:45;100734.56;;;15.73;100.00
50242;BME280;36126;43.222;27.874;2022-09-13T03:10:10;100727.22;;;15.67;100.00
50242;BME280;36126;43.222;27.874;2022-09-13T03:12:51;100733.25;;;15.48;100.00
50242;BME280;36126;43.222;27.874;2022-09-13T03:15:23;100731.47;;;15.05;100.00
50242;BME280;36126;43.222;27.874;2022-09-13T03:18:11;100737.41;;;15.08;100.00
50242;BME280;36126;43.222;27.874;2022-09-13T03:24:01;100732.34;;;15.05;100.00
50242;BME280;36126;43.222;27.874;2022-09-13T03:28:46;100740.28;;;15.19;100.00
50242;BME280;36126;43.222;27.874;2022-09-13T03:31:19;100734.59;;;15.08;100.00
50242;BME280;36126;43.222;27.874;2022-09-13T03:33:50;100743.16;;;14.96;100.00
50242;BME280;36126;43.222;27.874;2022-09-13T03:36:31;100744.69;;;15.09;100.00
50242;BME280;36126;43.222;27.874;2022-09-13T03:39:06;100746.75;;;14.65;100.00
50242;BME280;36126;43.222;27.874;2022-09-13T03:41:35;100754.53;;;14.85;100.00
50242;BME280;36126;43.222;27.874;2022-09-13T03:44:05;100749.63;;;14.97;100.00
50242;BME280;36126;43.222;27.874;2022-09-13T03:46:34;100754.56;;;14.90;100.00
50242;BME280;36126;43.222;27.874;2022-09-13T03:49:02;100753.94;;;15.10;100.00
50242;BME280;36126;43.222;27.874;2022-09-13T03:51:29;100757.75;;;14.99;100.00
50242;BME280;36126;43.222;27.874;2022-09-13T03:53:57;100750.91;;;14.89;100.00
50242;BME280;36126;43.222;27.874;2022-09-13T03:56:23;100767.56;;;15.01;100.00
50242;BME280;36126;43.222;27.874;2022-09-13T03:58:49;100758.69;;;15.09;100.00
50242;BME280;36126;43.222;27.874;2022-09-13T04:01:16;100767.44;;;14.91;100.00
50242;BME280;36126;43.222;27.874;2022-09-13T04:03:42;100766.22;;;15.09;100.00
50242;BME280;36126;43.222;27.874;2022-09-13T04:06:08;100767.50;;;15.23;100.00
50242;BME280;36126;43.222;27.874;2022-09-13T04:08:33;100774.47;;;15.21;100.00
50242;BME280;36126;43.222;27.874;2022-09-13T04:10:59;100766.47;;;15.35;100.00
50242;BME280;36126;43.222;27.874;2022-09-13T04:13:25;100767.78;;;15.27;100.00
50242;BME280;36126;43.222;27.874;2022-09-13T04:15:51;100769.22;;;15.62;100.00
50242;BME280;36126;43.222;27.874;2022-09-13T04:18:16;100766.59;;;15.50;100.00
50242;BME280;36126;43.222;27.874;2022-09-13T04:20:41;100772.13;;;15.77;100.00
50242;BME280;36126;43.222;27.874;2022-09-13T04:23:07;100771.25;;;16.78;100.00
50242;BME280;36126;43.222;27.874;2022-09-13T04:25:32;100778.38;;;17.63;100.00
50242;BME280;36126;43.222;27.874;2022-09-13T04:27:58;100771.59;;;17.90;100.00
50242;BME280;36126;43.222;27.874;2022-09-13T04:30:26;100778.97;;;18.72;100.00
50242;BME280;36126;43.222;27.874;2022-09-13T04:32:52;100778.97;;;19.56;100.00
50242;BME280;36126;43.222;27.874;2022-09-13T04:35:20;100794.44;;;19.24;100.00
50242;BME280;36126;43.222;27.874;2022-09-13T04:37:45;100783.16;;;18.74;100.00
50242;BME280;36126;43.222;27.874;2022-09-13T04:40:11;100789.97;;;19.18;100.00
50242;BME280;36126;43.222;27.874;2022-09-13T04:42:37;100782.84;;;19.65;100.00
50242;BME280;36126;43.222;27.874;2022-09-13T04:45:02;100783.38;;;19.33;100.00
50242;BME280;36126;43.222;27.874;2022-09-13T04:47:28;100792.72;;;19.28;100.00
50242;BME280;36126;43.222;27.874;2022-09-13T04:49:53;100786.50;;;19.66;100.00
50242;BME280;36126;43.222;27.874;2022-09-13T04:52:19;100787.75;;;20.62;100.00
50242;BME280;36126;43.222;27.874;2022-09-13T04:54:44;100795.38;;;19.49;100.00
50242;BME280;36126;43.222;27.874;2022-09-13T04:57:12;100807.41;;;19.20;100.00
50242;BME280;36126;43.222;27.874;2022-09-13T04:59:37;100804.50;;;19.35;100.00
50242;BME280;36126;43.222;27.874;2022-09-13T05:02:03;100805.00;;;19.03;100.00
50242;BME280;36126;43.222;27.874;2022-09-13T05:04:28;100799.50;;;18.67;100.00
50242;BME280;36126;43.222;27.874;2022-09-13T05:06:53;100800.88;;;19.30;100.00
50242;BME280;36126;43.222;27.874;2022-09-13T05:09:19;100793.81;;;18.88;100.00
50242;BME280;36126;43.222;27.874;2022-09-13T05:11:44;100795.25;;;18.75;100.00
50242;BME280;36126;43.222;27.874;2022-09-13T05:14:10;100806.06;;;19.52;100.00
50242;BME280;36126;43.222;27.874;2022-09-13T05:16:35;100796.09;;;20.24;100.00
50242;BME280;36126;43.222;27.874;2022-09-13T05:19:01;100798.06;;;20.96;100.00
50242;BME280;36126;43.222;27.874;2022-09-13T05:21:27;100801.97;;;21.38;100.00
50242;BME280;36126;43.222;27.874;2022-09-13T05:23:53;100797.19;;;21.71;100.00
50242;BME280;36126;43.222;27.874;2022-09-13T05:26:19;100806.69;;;21.62;100.00
50242;BME280;36126;43.222;27.874;2022-09-13T05:28:44;100800.88;;;20.96;100.00
50242;BME280;36126;43.222;27.874;2022-09-13T05:31:20;100801.03;;;21.23;100.00
50242;BME280;36126;43.222;27.874;2022-09-13T05:33:46;100801.38;;;20.54;100.00
50242;BME280;36126;43.222;27.874;2022-09-13T05:36:13;100801.97;;;20.27;100.00
50242;BME280;36126;43.222;27.874;2022-09-13T05:38:38;100802.91;;;19.93;100.00
50242;BME280;36126;43.222;27.874;2022-09-13T05:41:04;100797.84;;;20.19;100.00
50242;BME280;36126;43.222;27.874;2022-09-13T05:43:31;100799.53;;;20.20;100.00
50242;BME280;36126;43.222;27.874;2022-09-13T05:46:04;100799.09;;;20.08;100.00
50242;BME280;36126;43.222;27.874;2022-09-13T05:48:30;100793.81;;;20.01;100.00
50242;BME280;36126;43.222;27.874;2022-09-13T05:50:56;100793.66;;;19.87;100.00
50242;BME280;36126;43.222;27.874;2022-09-13T05:53:27;100797.16;;;19.69;100.00
50242;BME280;36126;43.222;27.874;2022-09-13T05:55:53;100795.22;;;19.69;100.00
50242;BME280;36126;43.222;27.874;2022-09-13T05:58:18;100799.78;;;19.60;100.00
50242;BME280;36126;43.222;27.874;2022-09-13T06:00:43;100798.44;;;19.52;100.00
50242;BME280;36126;43.222;27.874;2022-09-13T06:03:09;100796.78;;;19.51;100.00
50242;BME280;36126;43.222;27.874;2022-09-13T06:05:34;100795.59;;;19.58;100.00
50242;BME280;36126;43.222;27.874;2022-09-13T06:08:00;100804.59;;;19.60;100.00
50242;BME280;36126;43.222;27.874;2022-09-13T06:10:25;100803.69;;;19.64;100.00
50242;BME280;36126;43.222;27.874;2022-09-13T06:12:50;100811.50;;;19.78;100.00
50242;BME280;36126;43.222;27.874;2022-09-13T06:15:16;100810.63;;;19.82;100.00
50242;BME280;36126;43.222;27.874;2022-09-13T06:17:41;100809.63;;;19.97;100.00
50242;BME280;36126;43.222;27.874;2022-09-13T06:20:06;100811.81;;;20.05;100.00
50242;BME280;36126;43.222;27.874;2022-09-13T06:22:33;100817.84;;;19.94;100.00
50242;BME280;36126;43.222;27.874;2022-09-13T06:24:59;100818.13;;;19.92;100.00
50242;BME280;36126;43.222;27.874;2022-09-13T06:27:24;100818.41;;;19.96;100.00
50242;BME280;36126;43.222;27.874;2022-09-13T06:29:50;100824.38;;;20.18;100.00
50242;BME280;36126;43.222;27.874;2022-09-13T06:32:15;100824.06;;;20.20;100.00
50242;BME280;36126;43.222;27.874;2022-09-13T06:34:40;100822.03;;;20.50;100.00
50242;BME280;36126;43.222;27.874;2022-09-13T06:37:06;100819.59;;;20.43;100.00
50242;BME280;36126;43.222;27.874;2022-09-13T06:39:31;100825.19;;;20.48;100.00
50242;BME280;36126;43.222;27.874;2022-09-13T06:41:58;100820.84;;;20.32;100.00
50242;BME280;36126;43.222;27.874;2022-09-13T06:44:24;100820.28;;;20.05;100.00
50242;BME280;36126;43.222;27.874;2022-09-13T06:46:49;100834.50;;;20.19;100.00
50242;BME280;36126;43.222;27.874;2022-09-13T06:49:15;100826.66;;;20.41;100.00
50242;BME280;36126;43.222;27.874;2022-09-13T06:51:40;100830.69;;;20.59;100.00
50242;BME280;36126;43.222;27.874;2022-09-13T06:54:06;100825.69;;;20.50;100.00
50242;BME280;36126;43.222;27.874;2022-09-13T06:56:32;100825.88;;;20.35;100.00
50242;BME280;36126;43.222;27.874;2022-09-13T06:58:59;100822.53;;;20.57;100.00
50242;BME280;36126;43.222;27.874;2022-09-13T07:01:29;100825.50;;;20.66;100.00
50242;BME280;36126;43.222;27.874;2022-09-13T07:03:59;100817.91;;;20.66;100.00
50242;BME280;36126;43.222;27.874;2022-09-13T07:06:26;100823.00;;;20.88;100.00
50242;BME280;36126;43.222;27.874;2022-09-13T07:08:53;100828.19;;;21.00;100.00
50242;BME280;36126;43.222;27.874;2022-09-13T07:11:20;100819.06;;;20.89;100.00
50242;BME280;36126;43.222;27.874;2022-09-13T07:13:49;100816.72;;;21.16;100.00
50242;BME280;36126;43.222;27.874;2022-09-13T07:16:14;100812.47;;;21.51;100.00
50242;BME280;36126;43.222;27.874;2022-09-13T07:18:40;100814.16;;;21.33;100.00
50242;BME280;36126;43.222;27.874;2022-09-13T07:21:06;100809.06;;;21.35;100.00
50242;BME280;36126;43.222;27.874;2022-09-13T07:23:32;100818.75;;;21.48;100.00
50242;BME280;36126;43.222;27.874;2022-09-13T07:35:12;100817.50;;;22.20;100.00
50242;BME280;36126;43.222;27.874;2022-09-13T07:37:37;100814.69;;;22.20;100.00
50242;BME280;36126;43.222;27.874;2022-09-13T07:40:03;100812.06;;;22.10;100.00
50242;BME280;36126;43.222;27.874;2022-09-13T07:42:28;100792.94;;;22.35;100.00
50242;BME280;36126;43.222;27.874;2022-09-13T07:44:53;100815.91;;;22.00;100.00
50242;BME280;36126;43.222;27.874;2022-09-13T07:47:19;100822.75;;;22.13;100.00
50242;BME280;36126;43.222;27.874;2022-09-13T07:49:44;100819.28;;;22.16;100.00
50242;BME280;36126;43.222;27.874;2022-09-13T07:52:10;100828.03;;;21.87;100.00
50242;BME280;36126;43.222;27.874;2022-09-13T07:54:36;100824.69;;;21.85;100.00
50242;BME280;36126;43.222;27.874;2022-09-13T07:57:02;100833.75;;;21.82;100.00
50242;BME280;36126;43.222;27.874;2022-09-13T07:59:28;100829.47;;;21.84;100.00
50242;BME280;36126;43.222;27.874;2022-09-13T08:01:53;100828.81;;;22.06;100.00
50242;BME280;36126;43.222;27.874;2022-09-13T08:04:19;100820.00;;;22.08;100.00
50242;BME280;36126;43.222;27.874;2022-09-13T08:06:45;100820.47;;;22.15;95.72
50242;BME280;36126;43.222;27.874;2022-09-13T08:09:11;100823.03;;;21.98;96.86
50242;BME280;36126;43.222;27.874;2022-09-13T08:11:38;100819.22;;;21.88;96.93
50242;BME280;36126;43.222;27.874;2022-09-13T08:14:04;100827.75;;;22.02;98.61
50242;BME280;36126;43.222;27.874;2022-09-13T08:16:29;100812.06;;;22.10;98.45
50242;BME280;36126;43.222;27.874;2022-09-13T08:18:56;100813.28;;;22.04;94.56
50242;BME280;36126;43.222;27.874;2022-09-13T08:21:22;100814.88;;;22.10;91.54
50242;BME280;36126;43.222;27.874;2022-09-13T08:23:47;100821.38;;;22.24;93.19
50242;BME280;36126;43.222;27.874;2022-09-13T08:26:13;100826.41;;;22.14;93.12
50242;BME280;36126;43.222;27.874;2022-09-13T08:28:39;100816.13;;;22.18;91.64
50242;BME280;36126;43.222;27.874;2022-09-13T08:31:11;100805.78;;;22.13;93.89
50242;BME280;36126;43.222;27.874;2022-09-13T08:33:38;100816.41;;;22.35;93.88
50242;BME280;36126;43.222;27.874;2022-09-13T08:36:04;100800.13;;;22.27;95.22
50242;BME280;36126;43.222;27.874;2022-09-13T08:38:29;100805.41;;;22.34;91.45
50242;BME280;36126;43.222;27.874;2022-09-13T08:40:55;100801.94;;;22.51;92.22
50242;BME280;36126;43.222;27.874;2022-09-13T08:45:57;100794.41;;;22.46;92.97
50242;BME280;36126;43.222;27.874;2022-09-13T08:48:28;100795.84;;;22.71;91.25
50242;BME280;36126;43.222;27.874;2022-09-13T08:50:57;100791.53;;;22.88;88.26
50242;BME280;36126;43.222;27.874;2022-09-13T08:53:29;100790.78;;;23.47;87.12
50242;BME280;36126;43.222;27.874;2022-09-13T09:00:58;100789.59;;;23.70;83.53
50242;BME280;36126;43.222;27.874;2022-09-13T09:03:33;100788.19;;;23.59;83.82
50242;BME280;36126;43.222;27.874;2022-09-13T09:06:01;100789.41;;;23.67;83.86
50242;BME280;36126;43.222;27.874;2022-09-13T09:08:29;100778.50;;;23.60;84.79
50242;BME280;36126;43.222;27.874;2022-09-13T09:10:56;100781.47;;;23.77;84.66
50242;BME280;36126;43.222;27.874;2022-09-13T09:18:49;100762.41;;;24.90;76.87
50242;BME280;36126;43.222;27.874;2022-09-13T09:21:16;100769.63;;;24.87;77.60
50242;BME280;36126;43.222;27.874;2022-09-13T09:23:53;100774.44;;;24.69;79.39
50242;BME280;36126;43.222;27.874;2022-09-13T09:26:20;100763.28;;;24.41;78.07
50242;BME280;36126;43.222;27.874;2022-09-13T09:28:49;100753.75;;;25.12;75.24
50242;BME280;36126;43.222;27.874;2022-09-13T09:34:05;100756.63;;;25.39;71.24
50242;BME280;36126;43.222;27.874;2022-09-13T09:38:57;100760.72;;;26.03;69.80
50242;BME280;36126;43.222;27.874;2022-09-13T09:41:28;100760.22;;;25.83;71.58
50242;BME280;36126;43.222;27.874;2022-09-13T09:43:57;100759.03;;;25.93;71.22
50242;BME280;36126;43.222;27.874;2022-09-13T09:46:26;100772.81;;;25.56;72.21
50242;BME280;36126;43.222;27.874;2022-09-13T09:48:58;100759.41;;;25.83;67.67
50242;BME280;36126;43.222;27.874;2022-09-13T09:51:26;100760.94;;;25.62;69.66
50242;BME280;36126;43.222;27.874;2022-09-13T09:53:53;100770.97;;;25.77;70.13
50242;BME280;36126;43.222;27.874;2022-09-13T09:56:23;100769.50;;;26.27;69.31
50242;BME280;36126;43.222;27.874;2022-09-13T09:58:49;100770.28;;;26.67;68.20
50242;BME280;36126;43.222;27.874;2022-09-13T10:03:40;100775.03;;;26.92;63.69
50242;BME280;36126;43.222;27.874;2022-09-13T10:06:13;100771.31;;;26.71;62.24
50242;BME280;36126;43.222;27.874;2022-09-13T10:08:40;100777.38;;;26.22;62.67
50242;BME280;36126;43.222;27.874;2022-09-13T10:11:06;100776.41;;;26.00;62.64
50242;BME280;36126;43.222;27.874;2022-09-13T10:13:32;100780.66;;;26.41;62.03
50242;BME280;36126;43.222;27.874;2022-09-13T10:16:20;100781.19;;;26.35;78.79
50242;BME280;36126;43.222;27.874;2022-09-13T10:18:47;100782.78;;;26.14;93.00
50242;BME280;36126;43.222;27.874;2022-09-13T10:23:41;100777.19;;;25.44;100.00
50242;BME280;36126;43.222;27.874;2022-09-13T10:26:08;100771.94;;;25.90;100.00
50242;BME280;36126;43.222;27.874;2022-09-13T10:31:09;100772.50;;;25.49;100.00
50242;BME280;36126;43.222;27.874;2022-09-13T10:33:37;100778.63;;;24.98;100.00
50242;BME280;36126;43.222;27.874;2022-09-13T10:36:11;100777.31;;;25.13;100.00
50242;BME280;36126;43.222;27.874;2022-09-13T10:38:39;100769.28;;;24.89;100.00
50242;BME280;36126;43.222;27.874;2022-09-13T10:41:06;100774.94;;;24.71;100.00
50242;BME280;36126;43.222;27.874;2022-09-13T10:43:33;100774.00;;;24.53;100.00
50242;BME280;36126;43.222;27.874;2022-09-13T10:46:00;100769.25;;;24.63;100.00
50242;BME280;36126;43.222;27.874;2022-09-13T10:48:27;100766.63;;;24.43;100.00
50242;BME280;36126;43.222;27.874;2022-09-13T10:53:29;100767.47;;;24.44;100.00
50242;BME280;36126;43.222;27.874;2022-09-13T10:55:55;100761.19;;;24.16;100.00
50242;BME280;36126;43.222;27.874;2022-09-13T10:58:21;100767.44;;;23.95;100.00
50242;BME280;36126;43.222;27.874;2022-09-13T11:11:06;100749.75;;;25.22;100.00
50242;BME280;36126;43.222;27.874;2022-09-13T11:26:48;100738.38;;;25.13;100.00
50242;BME280;36126;43.222;27.874;2022-09-13T11:34:43;100741.44;;;24.59;100.00
50242;BME280;36126;43.222;27.874;2022-09-13T11:37:34;100727.31;;;25.12;100.00
50242;BME280;36126;43.222;27.874;2022-09-13T11:42:43;100733.47;;;24.70;100.00
50242;BME280;36126;43.222;27.874;2022-09-13T11:50:22;100727.66;;;24.67;100.00
50242;BME280;36126;43.222;27.874;2022-09-13T11:53:10;100735.34;;;25.19;100.00
50242;BME280;36126;43.222;27.874;2022-09-13T11:55:41;100732.47;;;24.66;100.00
50242;BME280;36126;43.222;27.874;2022-09-13T11:58:12;100733.03;;;24.28;100.00
50242;BME280;36126;43.222;27.874;2022-09-13T12:00:46;100724.81;;;24.67;100.00
50242;BME280;36126;43.222;27.874;2022-09-13T12:03:20;100720.09;;;24.62;100.00
50242;BME280;36126;43.222;27.874;2022-09-13T12:05:52;100719.13;;;24.84;100.00
50242;BME280;36126;43.222;27.874;2022-09-13T12:08:34;100729.66;;;24.92;99.70
50242;BME280;36126;43.222;27.874;2022-09-13T12:11:10;100729.66;;;24.84;100.00
50242;BME280;36126;43.222;27.874;2022-09-13T12:13:42;100719.81;;;24.81;100.00
50242;BME280;36126;43.222;27.874;2022-09-13T12:16:11;100726.41;;;24.50;100.00
50242;BME280;36126;43.222;27.874;2022-09-13T12:18:44;100734.75;;;24.47;100.00
50242;BME280;36126;43.222;27.874;2022-09-13T12:21:16;100731.16;;;24.81;100.00
50242;BME280;36126;43.222;27.874;2022-09-13T12:26:18;100743.06;;;24.43;100.00
50242;BME280;36126;43.222;27.874;2022-09-13T12:28:45;100736.47;;;24.16;100.00
50242;BME280;36126;43.222;27.874;2022-09-13T12:31:14;100744.84;;;24.21;100.00
50242;BME280;36126;43.222;27.874;2022-09-13T12:33:43;100740.09;;;24.48;100.00
50242;BME280;36126;43.222;27.874;2022-09-13T12:39:18;100742.66;;;24.18;100.00
50242;BME280;36126;43.222;27.874;2022-09-13T13:04:49;100740.69;;;23.19;100.00
50242;BME280;36126;43.222;27.874;2022-09-13T13:07:19;100739.47;;;22.98;100.00
50242;BME280;36126;43.222;27.874;2022-09-13T13:09:47;100748.09;;;22.92;100.00
50242;BME280;36126;43.222;27.874;2022-09-13T13:14:57;100755.72;;;23.06;100.00
50242;BME280;36126;43.222;27.874;2022-09-13T13:17:40;100755.38;;;23.21;100.00
50242;BME280;36126;43.222;27.874;2022-09-13T13:22:50;100758.78;;;24.00;100.00
50242;BME280;36126;43.222;27.874;2022-09-13T13:27:54;100760.91;;;24.75;100.00
50242;BME280;36126;43.222;27.874;2022-09-13T13:33:23;100768.75;;;24.78;100.00
50242;BME280;36126;43.222;27.874;2022-09-13T13:35:50;100761.56;;;24.72;100.00
50242;BME280;36126;43.222;27.874;2022-09-13T13:38:38;100762.06;;;24.65;100.00
50242;BME280;36126;43.222;27.874;2022-09-13T13:41:35;100768.09;;;24.72;100.00
50242;BME280;36126;43.222;27.874;2022-09-13T13:43:53;100757.81;;;24.54;100.00
50242;BME280;36126;43.222;27.874;2022-09-13T13:46:23;100759.91;;;24.71;100.00
50242;BME280;36126;43.222;27.874;2022-09-13T13:48:49;100760.72;;;24.80;100.00
50242;BME280;36126;43.222;27.874;2022-09-13T13:53:44;100769.97;;;25.03;100.00
50242;BME280;36126;43.222;27.874;2022-09-13T13:56:28;100775.97;;;25.02;100.00
50242;BME280;36126;43.222;27.874;2022-09-13T13:58:56;100776.97;;;25.15;100.00
50242;BME280;36126;43.222;27.874;2022-09-13T14:01:24;100780.47;;;24.94;100.00
50242;BME280;36126;43.222;27.874;2022-09-13T14:06:52;100783.34;;;24.54;100.00
50242;BME280;36126;43.222;27.874;2022-09-13T14:17:48;100773.50;;;23.80;100.00
50242;BME280;36126;43.222;27.874;2022-09-13T14:20:17;100772.44;;;23.98;100.00
50242;BME280;36126;43.222;27.874;2022-09-13T14:22:43;100772.06;;;24.22;100.00
50242;BME280;36126;43.222;27.874;2022-09-13T14:25:14;100771.75;;;23.92;100.00
50242;BME280;36126;43.222;27.874;2022-09-13T14:27:40;100774.19;;;23.85;100.00
50242;BME280;36126;43.222;27.874;2022-09-13T14:30:17;100775.25;;;23.89;100.00
50242;BME280;36126;43.222;27.874;2022-09-13T14:32:44;100789.09;;;23.91;100.00
50242;BME280;36126;43.222;27.874;2022-09-13T14:40:34;100791.66;;;23.56;100.00
50242;BME280;36126;43.222;27.874;2022-09-13T14:43:01;100796.84;;;23.17;100.00
50242;BME280;36126;43.222;27.874;2022-09-13T14:45:37;100796.41;;;23.24;100.00
50242;BME280;36126;43.222;27.874;2022-09-13T14:48:07;100798.69;;;23.36;100.00
50242;BME280;36126;43.222;27.874;2022-09-13T14:50:36;100795.03;;;23.35;100.00
50242;BME280;36126;43.222;27.874;2022-09-13T14:53:04;100792.25;;;23.44;100.00
50242;BME280;36126;43.222;27.874;2022-09-13T14:55:35;100798.94;;;23.71;100.00
50242;BME280;36126;43.222;27.874;2022-09-13T14:58:03;100797.50;;;23.82;100.00
50242;BME280;36126;43.222;27.874;2022-09-13T15:00:31;100790.13;;;23.95;100.00
50242;BME280;36126;43.222;27.874;2022-09-13T15:02:58;100796.13;;;23.93;100.00
50242;BME280;36126;43.222;27.874;2022-09-13T15:05:30;100803.31;;;24.00;100.00
50242;BME280;36126;43.222;27.874;2022-09-13T15:07:56;100805.25;;;23.90;100.00
50242;BME280;36126;43.222;27.874;2022-09-13T15:10:26;100797.19;;;23.61;100.00
50242;BME280;36126;43.222;27.874;2022-09-13T15:17:50;100807.41;;;23.12;100.00
50242;BME280;36126;43.222;27.874;2022-09-13T15:20:15;100797.41;;;22.91;100.00
50242;BME280;36126;43.222;27.874;2022-09-13T15:22:41;100805.06;;;23.05;100.00
50242;BME280;36126;43.222;27.874;2022-09-13T15:25:15;100799.06;;;23.06;100.00
50242;BME280;36126;43.222;27.874;2022-09-13T15:27:44;100800.88;;;22.88;100.00
50242;BME280;36126;43.222;27.874;2022-09-13T15:32:49;100801.75;;;22.61;100.00
50242;BME280;36126;43.222;27.874;2022-09-13T15:35:28;100798.38;;;22.59;100.00